Time;durP1;ratioP1;P1;durP2;ratioP2;P2;SDS_P1;SDS_P2;PMS_P1;PMS_P2;Temp;Humidity;BMP_temperature;BMP_pressure;BME280_temperature;BME280_humidity;BME280_pressure;Samples;Min_cycle;Max_cycle;Signal;HPM_P1;HPM_P2
2023/09/22 00:00:18;;;;;;;0.10;0.10;;;;;;;23.42;61.74;99759.38;5050153;28;20033;-73
2023/09/22 00:02:45;;;;;;;0.10;0.10;;;;;;;23.83;60.33;99752.97;5051092;28;20448;-73
2023/09/22 00:05:12;;;;;;;0.10;0.10;;;;;;;23.97;59.75;99764.47;5050811;28;20033;-72
2023/09/22 00:07:37;;;;;;;0.10;0.10;;;;;;;23.30;61.95;99766.69;5050603;28;20114;-71
2023/09/22 00:10:04;;;;;;;0.10;0.10;;;;;;;23.12;62.16;99768.78;5050029;28;20037;-73
2023/09/22 00:12:31;;;;;;;0.10;0.10;;;;;;;22.77;64.18;99761.94;5050421;28;20033;-72
2023/09/22 00:15:00;;;;;;;0.10;0.10;;;;;;;22.95;63.65;99773.56;5050831;28;20029;-72
2023/09/22 00:17:26;;;;;;;0.10;0.10;;;;;;;23.60;61.25;99767.44;5050475;28;20037;-73
2023/09/22 00:19:52;;;;;;;0.10;0.10;;;;;;;23.41;61.95;99776.94;5032306;28;20579;-73
2023/09/22 00:22:17;;;;;;;0.20;0.20;;;;;;;23.45;61.45;99782.56;5050486;28;20076;-73
2023/09/22 00:24:43;;;;;;;0.10;0.10;;;;;;;23.21;62.40;99772.22;5049766;28;20370;-73
2023/09/22 00:27:09;;;;;;;0.10;0.10;;;;;;;23.49;62.16;99778.81;5050298;28;20024;-72
2023/09/22 00:29:34;;;;;;;0.00;0.00;;;;;;;22.54;64.36;99777.00;5051092;28;20029;-71
2023/09/22 00:32:00;;;;;;;0.10;0.10;;;;;;;22.01;67.71;99795.88;5050208;28;20099;-72
2023/09/22 00:34:25;;;;;;;0.15;0.15;;;;;;;21.52;68.99;99794.50;5050208;28;20033;-72
2023/09/22 00:36:56;;;;;;;0.10;0.10;;;;;;;21.92;67.93;99793.16;5050249;28;20033;-73
2023/09/22 00:39:21;;;;;;;;;;;;;;;22.65;65.18;99800.97;5032672;28;20365;-72
2023/09/22 00:41:47;;;;;;;0.10;0.10;;;;;;;22.48;65.24;99800.22;5050713;28;19921;-73
2023/09/22 00:44:12;;;;;;;0.10;0.10;;;;;;;23.08;62.41;99788.94;5050103;28;20083;-72
2023/09/22 00:46:38;;;;;;;0.10;0.10;;;;;;;22.82;63.19;99791.84;5050030;28;20041;-72
2023/09/22 00:49:04;;;;;;;0.20;0.20;;;;;;;21.86;66.86;99788.22;5050176;28;20039;-72
2023/09/22 00:51:30;;;;;;;0.15;0.15;;;;;;;21.21;69.60;99791.91;5050381;28;20395;-72
2023/09/22 00:53:55;;;;;;;0.10;0.10;;;;;;;21.66;67.60;99776.78;5050993;28;20030;-72
2023/09/22 00:56:22;;;;;;;0.10;0.10;;;;;;;21.42;68.30;99790.16;5050033;28;20033;-73
2023/09/22 00:58:49;;;;;;;0.20;0.20;;;;;;;21.20;69.53;99784.84;5051981;28;20476;-73
2023/09/22 01:01:15;;;;;;;0.20;0.20;;;;;;;21.96;66.49;99793.31;5070663;28;20040;-72
2023/09/22 01:03:41;;;;;;;0.17;0.17;;;;;;;21.50;67.31;99786.59;5074076;28;20039;-73
2023/09/22 01:06:10;;;;;;;0.20;0.20;;;;;;;21.60;67.50;99797.19;5060042;28;20033;-72
2023/09/22 01:08:36;;;;;;;0.20;0.20;;;;;;;21.75;66.87;99806.84;5054490;28;20144;-71
2023/09/22 01:11:01;;;;;;;0.13;0.13;;;;;;;20.71;71.07;99809.78;5053969;28;20546;-71
2023/09/22 01:13:27;;;;;;;0.20;0.20;;;;;;;20.88;70.96;99801.63;5054044;28;20801;-71
2023/09/22 01:15:52;;;;;;;0.10;0.10;;;;;;;21.18;70.12;99810.88;5053937;28;20037;-72
2023/09/22 01:18:18;;;;;;;0.10;0.10;;;;;;;20.99;70.01;99808.41;5053954;28;20032;-73
2023/09/22 01:20:44;;;;;;;0.10;0.10;;;;;;;21.08;69.33;99808.44;5054206;28;20053;-72
2023/09/22 01:23:13;;;;;;;0.10;0.10;;;;;;;21.08;69.29;99805.72;5035317;28;20045;-73
2023/09/22 01:25:42;;;;;;;0.10;0.10;;;;;;;21.42;68.36;99803.81;5053576;28;20033;-72
2023/09/22 01:28:09;;;;;;;0.20;0.20;;;;;;;21.20;69.13;99805.88;5053869;28;20059;-73
2023/09/22 01:30:35;;;;;;;0.20;0.20;;;;;;;21.28;68.73;99807.84;5053979;28;20033;-72
2023/09/22 01:33:04;;;;;;;0.10;0.10;;;;;;;21.91;66.20;99810.72;5054872;28;20032;-73
2023/09/22 01:35:35;;;;;;;0.20;0.20;;;;;;;22.45;63.65;99800.88;5054174;28;20037;-73
2023/09/22 01:38:10;;;;;;;0.20;0.20;;;;;;;21.91;65.29;99804.44;5053930;28;20029;-72
2023/09/22 01:40:36;;;;;;;0.10;0.10;;;;;;;21.44;65.97;99808.97;5053681;28;20549;-72
2023/09/22 01:43:01;;;;;;;0.20;0.20;;;;;;;21.46;66.08;99812.97;5053843;28;20037;-73
2023/09/22 01:45:27;;;;;;;0.10;0.10;;;;;;;21.72;64.94;99802.81;5053710;28;20041;-72
2023/09/22 01:47:52;;;;;;;0.20;0.20;;;;;;;21.91;63.44;99816.19;5053961;28;20045;-73
2023/09/22 01:50:18;;;;;;;0.10;0.10;;;;;;;21.79;64.20;99816.00;5053766;28;20120;-73
2023/09/22 01:52:44;;;;;;;0.20;0.20;;;;;;;21.84;64.36;99818.59;5053555;28;20033;-72
2023/09/22 01:55:09;;;;;;;0.10;0.10;;;;;;;22.76;60.09;99820.56;5053500;28;20369;-72
2023/09/22 01:57:35;;;;;;;0.15;0.15;;;;;;;22.26;62.15;99820.44;5053165;28;20539;-73
2023/09/22 02:00:04;;;;;;;0.10;0.10;;;;;;;22.40;61.61;99820.25;5054262;28;20037;-72
2023/09/22 02:02:30;;;;;;;0.10;0.10;;;;;;;22.02;63.35;99831.13;5053475;28;20480;-72
2023/09/22 02:04:55;;;;;;;0.10;0.10;;;;;;;22.70;60.30;99838.34;5053677;28;20048;-73
2023/09/22 02:07:20;;;;;;;0.20;0.20;;;;;;;21.90;63.51;99844.66;5053495;28;20068;-71
2023/09/22 02:09:46;;;;;;;0.17;0.17;;;;;;;21.69;64.34;99846.44;5053528;28;20083;-72
2023/09/22 02:12:11;;;;;;;0.22;0.22;;;;;;;22.21;62.56;99847.19;5053117;28;20484;-71
2023/09/22 02:14:38;;;;;;;0.10;0.10;;;;;;;22.60;61.34;99850.44;5052551;28;20037;-73
2023/09/22 02:17:03;;;;;;;0.20;0.20;;;;;;;22.15;62.92;99848.50;5052902;28;20467;-72
2023/09/22 02:19:29;;;;;;;0.17;0.17;;;;;;;21.58;65.30;99848.66;5052888;28;20029;-72
2023/09/22 02:21:55;;;;;;;0.15;0.15;;;;;;;21.70;65.42;99854.31;5053236;28;20103;-73
2023/09/22 02:24:20;;;;;;;0.10;0.10;;;;;;;21.90;64.99;99849.31;5052894;28;20016;-73
2023/09/22 02:26:45;;;;;;;0.20;0.20;;;;;;;21.71;65.13;99857.84;5053315;28;20067;-73
2023/09/22 02:29:11;;;;;;;0.10;0.10;;;;;;;21.85;63.95;99858.53;5052116;28;20033;-72
2023/09/22 02:31:36;;;;;;;0.10;0.10;;;;;;;21.20;66.11;99858.63;5052762;28;20037;-72
2023/09/22 02:34:01;;;;;;;0.10;0.10;;;;;;;21.87;64.65;99864.47;5052654;28;20032;-73
2023/09/22 02:36:28;;;;;;;0.10;0.10;;;;;;;21.21;66.58;99859.44;5034782;28;20024;-73
2023/09/22 02:38:53;;;;;;;0.20;0.20;;;;;;;21.62;64.67;99866.03;5053216;28;20087;-72
2023/09/22 02:41:19;;;;;;;0.10;0.10;;;;;;;20.49;69.11;99864.44;5052502;28;20033;-72
2023/09/22 02:43:45;;;;;;;0.20;0.20;;;;;;;20.62;68.83;99875.28;5041623;28;20033;-73
2023/09/22 02:46:10;;;;;;;0.15;0.15;;;;;;;20.82;68.20;99873.91;5032361;28;20039;-72
2023/09/22 02:48:35;;;;;;;0.20;0.20;;;;;;;20.97;68.40;99873.50;5032547;28;20045;-73
2023/09/22 02:51:06;;;;;;;0.10;0.10;;;;;;;22.09;64.17;99868.94;5033055;28;20080;-72
2023/09/22 02:53:31;;;;;;;0.20;0.20;;;;;;;21.77;63.72;99876.53;5032314;28;20501;-72
2023/09/22 02:55:56;;;;;;;0.20;0.20;;;;;;;21.80;64.33;99875.88;5041028;28;20030;-72
2023/09/22 02:58:23;;;;;;;0.10;0.10;;;;;;;22.41;62.25;99869.19;5044926;28;20033;-73
2023/09/22 03:00:48;;;;;;;0.17;0.17;;;;;;;22.80;60.25;99873.56;5052519;28;20132;-72
2023/09/22 03:03:14;;;;;;;0.20;0.20;;;;;;;22.92;60.22;99876.41;5052273;28;20522;-70
2023/09/22 03:05:40;;;;;;;0.20;0.20;;;;;;;22.30;61.96;99872.59;5053128;28;20017;-71
2023/09/22 03:08:05;;;;;;;0.13;0.13;;;;;;;22.72;60.76;99874.44;5052061;28;20087;-72
2023/09/22 03:10:33;;;;;;;0.10;0.10;;;;;;;22.36;61.97;99885.00;5052392;28;20424;-73
2023/09/22 03:12:59;;;;;;;0.20;0.20;;;;;;;22.63;60.54;99882.69;5051920;28;20112;-71
2023/09/22 03:15:24;;;;;;;0.10;0.10;;;;;;;22.46;61.34;99885.44;5050528;28;20043;-71
2023/09/22 03:17:50;;;;;;;0.10;0.10;;;;;;;22.21;61.34;99894.50;5052331;28;20021;-71
2023/09/22 03:20:17;;;;;;;0.20;0.20;;;;;;;22.06;61.66;99891.47;5051600;28;20029;-72
2023/09/22 03:22:43;;;;;;;0.10;0.10;;;;;;;22.16;60.96;99891.13;5051725;28;20041;-71
2023/09/22 03:25:10;;;;;;;0.10;0.10;;;;;;;22.02;61.66;99894.06;5067188;28;20139;-73
2023/09/22 03:27:35;;;;;;;0.10;0.10;;;;;;;22.13;61.17;99895.31;5071426;28;20095;-73
2023/09/22 03:30:05;;;;;;;0.10;0.10;;;;;;;21.73;62.40;99896.63;5071794;28;20017;-73
2023/09/22 03:32:31;;;;;;;0.10;0.10;;;;;;;22.13;61.05;99878.91;5071449;28;20033;-73
2023/09/22 03:35:00;;;;;;;0.15;0.15;;;;;;;22.60;58.87;99890.75;5071256;28;20055;-73
2023/09/22 03:37:27;;;;;;;0.13;0.13;;;;;;;22.64;58.40;99880.75;5054105;28;20091;-72
2023/09/22 03:39:55;;;;;;;0.10;0.10;;;;;;;22.39;59.10;99890.59;5071487;28;20047;-72
2023/09/22 03:42:20;;;;;;;0.22;0.22;;;;;;;22.69;57.60;99895.06;5071146;28;20020;-71
2023/09/22 03:44:46;;;;;;;0.20;0.20;;;;;;;22.06;59.90;99891.47;5052308;28;20032;-72
2023/09/22 03:47:11;;;;;;;0.10;0.10;;;;;;;22.58;58.25;99901.22;5034367;28;20038;-71
2023/09/22 03:49:36;;;;;;;0.10;0.10;;;;;;;22.45;57.80;99900.25;5031264;28;20030;-71
2023/09/22 03:52:02;;;;;;;0.10;0.10;;;;;;;22.48;58.36;99893.34;5031230;28;20504;-71
2023/09/22 03:54:27;;;;;;;0.20;0.20;;;;;;;22.48;57.29;99888.66;5031404;28;20029;-73
2023/09/22 03:56:53;;;;;;;0.10;0.10;;;;;;;22.60;57.44;99882.53;5031362;28;20033;-72
2023/09/22 03:59:18;;;;;;;0.10;0.10;;;;;;;22.45;57.42;99889.31;5030791;28;20037;-72
2023/09/22 04:01:44;;;;;;;0.20;0.20;;;;;;;22.54;58.27;99889.28;5049201;28;20029;-72
2023/09/22 04:04:10;;;;;;;0.10;0.10;;;;;;;22.43;58.23;99894.31;5050511;28;20037;-73
2023/09/22 04:06:35;;;;;;;0.10;0.10;;;;;;;22.66;57.45;99894.91;5050593;28;20040;-72
2023/09/22 04:09:07;;;;;;;0.20;0.20;;;;;;;22.62;58.05;99892.00;5050963;28;20025;-72
2023/09/22 04:11:34;;;;;;;0.10;0.10;;;;;;;22.20;59.52;99886.63;5019704;28;20025;-71
2023/09/22 04:13:59;;;;;;;0.20;0.20;;;;;;;22.23;59.26;99883.25;5035293;28;20054;-72
2023/09/22 04:16:24;;;;;;;0.10;0.10;;;;;;;22.45;59.14;99885.75;5052302;28;20503;-71
2023/09/22 04:18:54;;;;;;;0.10;0.10;;;;;;;22.59;58.15;99881.72;5070716;28;20040;-72
2023/09/22 04:21:22;;;;;;;0.10;0.10;;;;;;;22.61;58.14;99879.47;5070158;28;20060;-73
2023/09/22 04:23:57;;;;;;;0.20;0.20;;;;;;;22.48;58.38;99891.41;5070600;28;20554;-74
2023/09/22 04:26:27;;;;;;;0.20;0.20;;;;;;;22.29;59.25;99888.22;5070374;28;20028;-73
2023/09/22 04:28:54;;;;;;;0.20;0.20;;;;;;;22.36;58.80;99894.00;5070545;28;20040;-71
2023/09/22 04:31:22;;;;;;;0.20;0.20;;;;;;;22.36;59.13;99901.41;5070470;28;20661;-72
2023/09/22 04:33:47;;;;;;;0.20;0.20;;;;;;;22.03;58.74;99895.69;5070616;28;20036;-71
2023/09/22 04:36:12;;;;;;;0.20;0.20;;;;;;;21.40;62.17;99899.00;5070099;28;20163;-72
2023/09/22 04:38:38;;;;;;;0.20;0.20;;;;;;;22.20;59.84;99905.78;5064650;28;20017;-72
2023/09/22 04:41:04;;;;;;;0.10;0.10;;;;;;;21.95;59.55;99907.44;5057636;28;20045;-72
2023/09/22 04:43:29;;;;;;;0.20;0.20;;;;;;;22.25;58.68;99913.84;5060267;28;20131;-72
2023/09/22 04:45:55;;;;;;;0.13;0.13;;;;;;;21.83;60.13;99910.81;5058772;28;20480;-72
2023/09/22 04:48:20;;;;;;;0.20;0.20;;;;;;;21.74;60.96;99920.09;5059790;28;20027;-73
2023/09/22 04:50:55;;;;;;;0.20;0.20;;;;;;;21.96;59.37;99922.72;5059942;28;20468;-72
2023/09/22 04:53:21;;;;;;;0.10;0.10;;;;;;;22.37;58.84;99917.50;5057414;28;20466;-73
2023/09/22 04:55:48;;;;;;;0.10;0.10;;;;;;;22.18;59.06;99925.28;5061121;28;20173;-71
2023/09/22 04:58:14;;;;;;;0.20;0.20;;;;;;;22.07;59.88;99928.66;5058243;28;20033;-72
2023/09/22 05:00:40;;;;;;;0.10;0.10;;;;;;;21.62;60.73;99933.63;5041310;28;20732;-73
2023/09/22 05:03:07;;;;;;;0.20;0.20;;;;;;;21.81;59.46;99928.69;5060372;28;20044;-72
2023/09/22 05:05:32;;;;;;;0.10;0.10;;;;;;;21.19;62.30;99928.03;5058067;28;20060;-71
2023/09/22 05:07:59;;;;;;;0.10;0.10;;;;;;;21.44;62.04;99924.59;5059981;28;20059;-72
2023/09/22 05:10:24;;;;;;;0.20;0.20;;;;;;;22.03;59.56;99927.72;5041765;28;20033;-72
2023/09/22 05:12:51;;;;;;;0.17;0.17;;;;;;;22.04;59.51;99929.31;5060211;28;20079;-72
2023/09/22 05:15:16;;;;;;;0.10;0.10;;;;;;;21.66;60.97;99938.09;5056478;28;20021;-73
2023/09/22 05:17:42;;;;;;;0.10;0.10;;;;;;;22.40;58.47;99936.03;5049307;28;20467;-73
2023/09/22 05:20:12;;;;;;;0.20;0.20;;;;;;;22.26;58.16;99929.13;5047591;28;20037;-72
2023/09/22 05:22:38;;;;;;;0.10;0.10;;;;;;;22.22;58.62;99934.44;5053011;28;20044;-72
2023/09/22 05:25:05;;;;;;;0.20;0.20;;;;;;;22.05;59.73;99936.41;5048274;28;20040;-72
2023/09/22 05:27:30;;;;;;;0.10;0.10;;;;;;;21.63;61.16;99952.44;5048225;28;20072;-72
2023/09/22 05:29:56;;;;;;;0.20;0.20;;;;;;;21.94;60.50;99946.03;5049008;28;20091;-72
2023/09/22 05:32:21;;;;;;;0.20;0.20;;;;;;;22.00;59.95;99948.31;5048497;28;20044;-75
2023/09/22 05:34:46;;;;;;;0.13;0.13;;;;;;;21.68;60.76;99957.75;5055054;28;20044;-72
2023/09/22 05:37:12;;;;;;;0.20;0.20;;;;;;;22.03;59.67;99942.19;5059832;28;20043;-73
2023/09/22 05:39:38;;;;;;;0.20;0.20;;;;;;;21.65;61.61;99952.94;5059149;28;20033;-72
2023/09/22 05:42:06;;;;;;;0.10;0.10;;;;;;;21.74;61.34;99948.25;5057023;28;20063;-74
2023/09/22 05:44:32;;;;;;;0.20;0.20;;;;;;;21.53;61.05;99936.34;5056579;28;20040;-72
2023/09/22 05:46:58;;;;;;;0.15;0.15;;;;;;;22.36;59.05;99948.75;5058797;28;20507;-72
2023/09/22 05:49:23;;;;;;;0.20;0.20;;;;;;;22.12;59.58;99945.72;5059269;28;20041;-71
2023/09/22 05:51:49;;;;;;;0.20;0.20;;;;;;;22.09;59.74;99945.56;5053422;28;20033;-72
2023/09/22 05:54:15;;;;;;;0.10;0.10;;;;;;;21.49;62.07;99957.22;5053087;28;20677;-73
2023/09/22 05:56:40;;;;;;;0.15;0.15;;;;;;;22.17;59.71;99951.03;5053381;28;20483;-72
2023/09/22 05:59:06;;;;;;;0.17;0.17;;;;;;;22.06;59.68;99955.22;5053035;28;20033;-71
2023/09/22 06:01:35;;;;;;;0.20;0.20;;;;;;;22.37;58.89;99950.34;5052352;28;20116;-72
2023/09/22 06:04:04;;;;;;;0.20;0.20;;;;;;;21.71;60.93;99950.84;5052658;28;20040;-71
2023/09/22 06:06:32;;;;;;;0.10;0.10;;;;;;;22.48;58.56;99948.91;5064948;28;20033;-73
2023/09/22 06:08:58;;;;;;;0.10;0.10;;;;;;;22.61;57.56;99950.66;5073587;28;20102;-72
2023/09/22 06:11:24;;;;;;;0.20;0.20;;;;;;;22.75;58.08;99955.13;5068486;28;20393;-73
2023/09/22 06:13:49;;;;;;;0.20;0.20;;;;;;;23.08;56.82;99962.44;5052677;28;20036;-73
2023/09/22 06:16:15;;;;;;;0.20;0.20;;;;;;;22.52;58.31;99957.28;5055932;28;20033;-73
2023/09/22 06:18:40;;;;;;;0.10;0.10;;;;;;;21.58;62.07;99968.19;5052883;28;20043;-71
2023/09/22 06:21:06;;;;;;;0.10;0.10;;;;;;;21.60;61.93;99971.41;5053278;28;20132;-71
2023/09/22 06:23:31;;;;;;;0.20;0.20;;;;;;;21.29;62.74;99973.41;5048792;28;20038;-72
2023/09/22 06:26:02;;;;;;;0.10;0.10;;;;;;;21.89;61.57;99979.84;5032647;28;20037;-72
2023/09/22 06:28:27;;;;;;;;;;;;;;;21.35;63.01;99975.69;5033465;28;20540;-72
2023/09/22 06:31:02;;;;;;;0.10;0.10;;;;;;;22.42;60.19;99969.38;5032675;28;19913;-73
2023/09/22 06:33:27;;;;;;;0.10;0.10;;;;;;;22.46;59.05;99967.59;5032649;28;20033;-72
2023/09/22 06:35:57;;;;;;;0.10;0.10;;;;;;;22.78;58.37;99966.22;5033190;28;20386;-73
2023/09/22 06:38:22;;;;;;;0.20;0.20;;;;;;;22.00;59.52;99975.66;5033084;28;20116;-73
2023/09/22 06:40:49;;;;;;;0.20;0.20;;;;;;;22.74;58.58;99978.19;5033053;28;20593;-72
2023/09/22 06:43:15;;;;;;;0.20;0.20;;;;;;;22.37;59.34;99982.41;5033063;28;20120;-72
2023/09/22 06:45:40;;;;;;;0.20;0.20;;;;;;;21.95;61.07;99989.50;5032658;28;20476;-72
2023/09/22 06:48:06;;;;;;;0.20;0.20;;;;;;;22.31;59.82;99973.56;5033165;28;20045;-73
2023/09/22 06:50:35;;;;;;;0.10;0.10;;;;;;;22.85;58.10;99982.19;5032773;28;21236;-72
2023/09/22 06:53:00;;;;;;;0.20;0.20;;;;;;;22.98;58.14;99990.19;5032354;28;20038;-72
2023/09/22 06:55:26;;;;;;;0.10;0.10;;;;;;;22.69;58.85;99988.19;5047687;28;20048;-72
2023/09/22 06:57:52;;;;;;;0.10;0.10;;;;;;;23.03;58.19;100001.00;5032564;28;20404;-74
2023/09/22 07:00:18;;;;;;;0.17;0.17;;;;;;;23.11;57.86;99988.38;5032528;28;20083;-73
2023/09/22 07:02:47;;;;;;;0.20;0.20;;;;;;;22.35;60.81;99985.47;5032826;28;20025;-71
2023/09/22 07:05:13;;;;;;;0.20;0.20;;;;;;;22.52;59.10;99990.94;5032266;28;20033;-72
2023/09/22 07:07:39;;;;;;;0.10;0.10;;;;;;;23.35;56.86;99991.38;5032013;28;20088;-73
2023/09/22 07:10:10;;;;;;;0.20;0.20;;;;;;;23.32;56.81;99995.56;5031918;28;20124;-72
2023/09/22 07:12:39;;;;;;;0.10;0.10;;;;;;;22.57;58.44;99996.28;5031939;28;20570;-72
2023/09/22 07:15:06;;;;;;;0.10;0.10;;;;;;;22.35;60.57;99996.41;5032219;28;20033;-71
2023/09/22 07:17:31;;;;;;;0.10;0.10;;;;;;;22.79;59.26;99998.00;5012694;28;20065;-72
2023/09/22 07:19:57;;;;;;;0.15;0.15;;;;;;;23.00;58.45;100011.78;5012641;28;20497;-71
2023/09/22 07:22:23;;;;;;;0.10;0.10;;;;;;;22.72;57.64;100002.38;5019315;28;20088;-72
2023/09/22 07:24:51;;;;;;;0.10;0.10;;;;;;;22.47;58.44;100006.72;5017051;28;20481;-73
2023/09/22 07:27:17;;;;;;;0.10;0.10;;;;;;;22.24;59.08;100005.28;5031905;28;20381;-71
2023/09/22 07:29:43;;;;;;;0.10;0.10;;;;;;;22.18;59.25;100003.84;5032442;28;20048;-72
2023/09/22 07:32:08;;;;;;;0.10;0.10;;;;;;;21.77;60.72;100013.28;5013485;28;20048;-72
2023/09/22 07:34:34;;;;;;;0.10;0.10;;;;;;;22.27;59.34;100005.44;5031722;28;20223;-73
2023/09/22 07:36:59;;;;;;;0.10;0.10;;;;;;;21.37;61.63;100019.91;5031926;28;20044;-71
2023/09/22 07:39:25;;;;;;;0.10;0.10;;;;;;;22.53;58.00;100008.16;5032169;28;20025;-73
2023/09/22 07:41:50;;;;;;;0.20;0.20;;;;;;;21.81;59.28;100018.94;5031787;28;20022;-72
2023/09/22 07:44:18;;;;;;;0.10;0.10;;;;;;;22.10;58.57;100016.41;5031389;28;20044;-72
2023/09/22 07:46:44;;;;;;;0.10;0.10;;;;;;;21.92;58.28;100019.41;5031761;28;20508;-72
2023/09/22 07:49:10;;;;;;;0.10;0.10;;;;;;;22.46;56.92;100022.38;5031276;28;20083;-73
2023/09/22 07:51:36;;;;;;;0.10;0.10;;;;;;;21.77;59.10;100024.22;5031261;28;20061;-72
2023/09/22 07:54:02;;;;;;;0.10;0.10;;;;;;;21.80;58.34;100030.97;5032209;28;20033;-71
2023/09/22 07:56:30;;;;;;;0.10;0.10;;;;;;;21.89;58.55;100025.53;5018057;28;20042;-72
2023/09/22 07:58:56;;;;;;;0.10;0.10;;;;;;;21.45;59.84;100037.47;5011630;28;20048;-72
2023/09/22 08:01:24;;;;;;;0.20;0.20;;;;;;;21.26;59.92;100042.38;5011348;28;20488;-72
2023/09/22 08:03:49;;;;;;;0.10;0.10;;;;;;;21.22;59.72;100050.41;5011569;28;20549;-73
2023/09/22 08:06:15;;;;;;;0.10;0.10;;;;;;;21.60;59.35;100042.50;5011646;28;20025;-72
2023/09/22 08:08:41;;;;;;;0.20;0.20;;;;;;;22.66;56.28;100034.63;5012159;28;20033;-71
2023/09/22 08:11:06;;;;;;;0.17;0.17;;;;;;;23.30;54.29;100041.69;5011285;28;20505;-72
2023/09/22 08:13:33;;;;;;;0.10;0.10;;;;;;;23.37;53.71;100055.72;5011598;28;20038;-73
2023/09/22 08:15:59;;;;;;;0.10;0.10;;;;;;;21.70;59.12;100055.88;5019701;28;20041;-72
2023/09/22 08:18:25;;;;;;;0.10;0.10;;;;;;;22.71;55.33;100053.59;5031163;28;20054;-73
2023/09/22 08:20:51;;;;;;;0.10;0.10;;;;;;;21.44;58.37;100063.19;5035884;28;20073;-71
2023/09/22 08:23:16;;;;;;;0.10;0.10;;;;;;;22.21;56.76;100066.94;5050174;28;20067;-72
2023/09/22 08:25:44;;;;;;;0.10;0.10;;;;;;;21.43;58.06;100075.25;5050838;28;20041;-73
2023/09/22 08:28:13;;;;;;;0.10;0.10;;;;;;;22.60;55.94;100074.25;5050300;28;20086;-72
2023/09/22 08:30:39;;;;;;;0.10;0.10;;;;;;;23.10;54.42;100074.47;5050374;28;20036;-73
2023/09/22 08:33:07;;;;;;;0.10;0.10;;;;;;;23.03;53.86;100082.41;5051399;28;20032;-72
2023/09/22 08:35:32;;;;;;;0.10;0.10;;;;;;;22.31;53.74;100082.28;5050371;28;20060;-72
2023/09/22 08:38:00;;;;;;;0.10;0.10;;;;;;;21.87;53.74;100085.25;5050370;28;20428;-72
2023/09/22 08:40:25;;;;;;;0.10;0.10;;;;;;;22.14;54.25;100083.06;5050593;28;20037;-72
2023/09/22 08:42:52;;;;;;;0.10;0.10;;;;;;;21.60;55.41;100092.53;5050549;28;20075;-72
2023/09/22 08:45:18;;;;;;;0.10;0.10;;;;;;;21.35;55.83;100089.66;5050573;28;20039;-71
2023/09/22 08:47:46;;;;;;;0.10;0.10;;;;;;;22.09;54.08;100088.69;5050783;28;20033;-72
2023/09/22 08:50:14;;;;;;;0.20;0.20;;;;;;;21.21;56.42;100081.56;5050498;28;20474;-71
2023/09/22 08:52:41;;;;;;;0.20;0.20;;;;;;;21.27;56.44;100083.06;5032566;28;20040;-71
2023/09/22 08:55:08;;;;;;;0.13;0.13;;;;;;;21.76;55.45;100084.69;5050766;28;20637;-72
2023/09/22 08:57:34;;;;;;;0.10;0.10;;;;;;;21.61;55.62;100090.59;5050309;28;20033;-73
2023/09/22 08:59:59;;;;;;;0.10;0.10;;;;;;;22.49;53.30;100079.22;5051075;28;20025;-72
2023/09/22 09:02:25;;;;;;;0.20;0.20;;;;;;;21.48;56.00;100086.06;5050498;28;20407;-70
2023/09/22 09:04:51;;;;;;;0.10;0.10;;;;;;;21.82;55.23;100087.00;5050384;28;20497;-73
2023/09/22 09:07:17;;;;;;;0.10;0.10;;;;;;;21.89;54.57;100083.00;5050177;28;20029;-73
2023/09/22 09:09:44;;;;;;;0.20;0.20;;;;;;;21.06;57.07;100089.34;5050463;28;20037;-71
2023/09/22 09:12:10;;;;;;;0.20;0.20;;;;;;;20.91;57.13;100091.31;5050977;28;20025;-71
2023/09/22 09:14:42;;;;;;;0.10;0.10;;;;;;;20.95;58.01;100095.03;5050274;28;20044;-72
2023/09/22 09:17:20;;;;;;;0.10;0.10;;;;;;;21.78;55.41;100101.59;5049720;28;20377;-73
2023/09/22 09:20:00;;;;;;;0.10;0.10;;;;;;;21.95;54.55;100090.75;5036686;28;20374;-72
2023/09/22 09:22:33;;;;;;;0.10;0.10;;;;;;;22.45;54.06;100105.63;5012068;28;20042;-72
2023/09/22 09:25:02;;;;;;;0.20;0.20;;;;;;;21.34;56.31;100105.28;5013275;28;20038;-70
2023/09/22 09:27:28;;;;;;;0.28;0.28;;;;;;;22.07;54.06;100101.88;5014190;28;20054;-71
2023/09/22 09:29:55;;;;;;;0.13;0.13;;;;;;;22.04;54.45;100107.16;5014860;28;20107;-72
2023/09/22 09:32:27;;;;;;;0.15;0.15;;;;;;;21.45;54.81;100100.34;5014283;28;20814;-71
2023/09/22 09:34:54;;;;;;;0.10;0.10;;;;;;;20.99;55.95;100111.66;5014059;28;20045;-73
2023/09/22 09:37:20;;;;;;;0.10;0.10;;;;;;;22.12;52.82;100104.47;5014205;28;20030;-71
2023/09/22 09:39:50;;;;;;;0.10;0.10;;;;;;;21.23;54.13;100119.53;5014302;28;20026;-73
2023/09/22 09:42:17;;;;;;;0.10;0.10;;;;;;;21.79;53.06;100109.50;5014566;28;20032;-67
2023/09/22 09:44:49;;;;;;;0.10;0.10;;;;;;;22.28;51.93;100102.88;5014170;28;20081;-71
2023/09/22 09:47:24;;;;;;;0.10;0.10;;;;;;;22.31;51.90;100113.16;4996610;28;20048;-72
2023/09/22 09:49:52;;;;;;;0.10;0.10;;;;;;;22.51;51.22;100090.66;5041090;28;20078;-73
2023/09/22 09:52:24;;;;;;;0.20;0.20;;;;;;;22.55;51.18;100074.38;5036045;28;20041;-70
2023/09/22 09:54:59;;;;;;;0.10;0.10;;;;;;;22.48;51.29;100102.25;5053418;28;20090;-71
2023/09/22 09:57:25;;;;;;;0.10;0.10;;;;;;;21.39;53.75;100096.94;5053474;28;20029;-71
2023/09/22 09:59:52;;;;;;;0.10;0.10;;;;;;;22.60;51.67;100102.41;5053640;28;20442;-71
2023/09/22 10:02:20;;;;;;;0.10;0.10;;;;;;;23.30;48.84;100095.72;5053046;28;20060;-73
2023/09/22 10:04:47;;;;;;;0.00;0.00;;;;;;;22.70;51.37;100093.88;5053290;28;20407;-73
2023/09/22 10:07:15;;;;;;;0.10;0.10;;;;;;;23.09;49.81;100089.31;5053004;28;20094;-73
2023/09/22 10:09:40;;;;;;;0.10;0.10;;;;;;;23.95;48.31;100090.63;5053231;28;20036;-72
2023/09/22 10:12:06;;;;;;;0.10;0.10;;;;;;;22.15;51.89;100094.81;5053747;28;20025;-71
2023/09/22 10:14:51;;;;;;;0.10;0.10;;;;;;;22.42;52.45;100099.97;5052828;28;20041;-72
2023/09/22 10:17:21;;;;;;;0.10;0.10;;;;;;;23.44;49.61;100090.84;5053057;28;20068;-72
2023/09/22 10:19:47;;;;;;;;;;;;;;;23.90;49.01;100088.03;5053661;28;20029;-70
2023/09/22 10:22:12;;;;;;;0.10;0.10;;;;;;;24.24;48.70;100082.38;5036951;28;19925;-71
2023/09/22 10:24:38;;;;;;;0.10;0.10;;;;;;;22.69;51.50;100075.03;5032845;28;20033;-73
2023/09/22 10:27:07;;;;;;;0.10;0.10;;;;;;;22.03;52.48;100087.22;5033336;28;20474;-70
2023/09/22 10:29:33;;;;;;;0.10;0.10;;;;;;;22.47;51.44;100084.19;5032450;28;20045;-73
2023/09/22 10:32:16;;;;;;;0.10;0.10;;;;;;;23.25;49.47;100084.94;5033029;28;20133;-72
2023/09/22 10:35:01;;;;;;;0.10;0.10;;;;;;;22.51;51.27;100089.84;5031866;28;20045;-72
2023/09/22 10:37:33;;;;;;;0.10;0.10;;;;;;;23.02;49.97;100087.06;5032812;28;20113;-72
2023/09/22 10:40:25;;;;;;;0.10;0.10;;;;;;;23.35;49.35;100088.13;5032411;28;20040;-71
2023/09/22 10:42:51;;;;;;;0.10;0.10;;;;;;;22.25;50.42;100089.81;5032750;28;20065;-70
2023/09/22 10:45:21;;;;;;;0.10;0.10;;;;;;;21.86;52.67;100100.06;5032450;28;20527;-70
2023/09/22 10:47:55;;;;;;;0.00;0.00;;;;;;;22.59;50.21;100076.19;5031635;28;20025;-72
2023/09/22 10:50:31;;;;;;;0.10;0.10;;;;;;;21.66;53.13;100082.28;5032984;28;20052;-70
2023/09/22 10:52:58;;;;;;;0.10;0.10;;;;;;;22.64;50.08;100072.47;5032269;28;20511;-71
2023/09/22 10:55:28;;;;;;;0.10;0.10;;;;;;;22.44;49.41;100071.16;5032648;28;20045;-72
2023/09/22 10:57:55;;;;;;;0.00;0.00;;;;;;;23.01;48.33;100076.44;5032819;28;20041;-72
2023/09/22 11:00:22;;;;;;;0.10;0.10;;;;;;;22.83;48.11;100080.34;5032083;28;20342;-70
2023/09/22 11:02:47;;;;;;;0.10;0.10;;;;;;;22.47;48.42;100061.47;5032795;28;20028;-69
2023/09/22 11:05:14;;;;;;;0.10;0.10;;;;;;;22.89;49.50;100074.38;5032010;28;20135;-70
2023/09/22 11:07:41;;;;;;;0.10;0.10;;;;;;;23.26;48.43;100081.84;5032030;28;20541;-71
2023/09/22 11:10:07;;;;;;;0.10;0.10;;;;;;;22.44;49.26;100075.81;5032520;28;20021;-72
2023/09/22 11:12:32;;;;;;;0.10;0.10;;;;;;;22.61;49.50;100073.91;5032036;28;20496;-71
2023/09/22 11:15:00;;;;;;;0.10;0.10;;;;;;;22.37;49.78;100089.19;5032010;28;20029;-71
2023/09/22 11:17:41;;;;;;;0.10;0.10;;;;;;;23.03;46.70;100085.97;5026974;28;20076;-71
2023/09/22 11:20:12;;;;;;;0.00;0.00;;;;;;;23.68;45.96;100090.28;5032095;28;20045;-70
2023/09/22 11:22:38;;;;;;;;;;;;;;;24.46;44.42;100094.16;5032640;28;20072;-71
2023/09/22 11:25:06;;;;;;;0.13;0.13;;;;;;;25.14;42.71;100088.03;5051053;28;19920;-72
2023/09/22 11:27:33;;;;;;;0.10;0.10;;;;;;;24.78;43.06;100097.00;5051437;28;20048;-70
2023/09/22 11:30:14;;;;;;;0.00;0.00;;;;;;;25.03;42.89;100093.19;5052175;28;20029;-71